Friday, September 21, 2018, 3:58 AM EDT
Back to Local

KSWF, Newburgh / Stewart

Location: New Windsor, NY, United States Lat: 41.5
Local Time: 3:58 AM EDT ( 7:58 GMT) Lon: -74.1
Time Zone: US/Eastern Elev: 492 ft

Show me the last for .
Show Decoded

2018-09-21 02:45 METAR KSWF 210645Z 00000KT 10SM OVC025 19/16 A3025 =
2018-09-21 01:45 METAR KSWF 210545Z 00000KT 10SM OVC025 19/16 A3025 =
2018-09-21 00:45 METAR KSWF 210445Z 00000KT 10SM OVC030 18/17 A3026 =
2018-09-20 23:45 METAR KSWF 210345Z 00000KT 10SM OVC030 18/17 A3026 =
2018-09-20 21:45 METAR KSWF 210145Z 00000KT 10SM OVC035 19/15 A3026 =
2018-09-20 20:45 METAR KSWF 210045Z 00000KT 10SM BKN030 OVC050 19/15 A3025 =
2018-09-20 19:45 METAR KSWF 202345Z 00000KT 10SM SCT030 OVC045 19/16 A3024 =
2018-09-20 18:45 METAR KSWF 202245Z 00000KT 10SM BKN028 OVC034 20/16 A3024 =
2018-09-20 17:45 METAR KSWF 202145Z 00000KT 10SM OVC030 20/16 A3024 =
2018-09-20 16:45 METAR KSWF 202045Z VRB05KT 10SM OVC032 20/15 A3022 =
2018-09-20 15:45 METAR KSWF 201945Z VRB05KT 10SM OVC032 20/15 A3022 =
2018-09-20 14:45 METAR KSWF 201845Z VRB05KT 10SM OVC032 20/15 A3023 =
2018-09-20 13:45 METAR KSWF 201745Z VRB05KT 10SM OVC030 20/16 A3025 =
2018-09-20 12:45 METAR KSWF 201645Z VRB05KT 10SM FEW015 OVC030 19/15 A3026 =
2018-09-20 11:45 METAR KSWF 201545Z VRB05KT 10SM FEW009 OVC015 18/15 A3027 =
2018-09-20 10:45 METAR KSWF 201445Z VRB04KT 10SM FEW006 OVC015 17/15 A3027 =
2018-09-20 09:45 METAR KSWF 201345Z 09004KT 10SM SCT006 OVC015 17/15 A3025 =
2018-09-20 08:45 METAR KSWF 201245Z 11005KT 5SM BCFG BR OVC009 16/15 A3022 =
2018-09-20 07:45 METAR KSWF 201145Z 11005KT 7SM OVC009 15/15 A3021 =
2018-09-20 06:49 METAR KSWF 201049Z 00000KT 5SM -DZ BR OVC009 15/14 A3017 =
2018-09-20 06:45 METAR KSWF 201045Z 00000KT 10SM -DZ OVC012 15/14 A3017 =
2018-09-20 05:45 METAR KSWF 200945Z VRB05KT 10SM OVC012 16/14 A3015 =

Support USWX by starting your Amazon purchase here.